Time;durP1;ratioP1;P1;durP2;ratioP2;P2;SDS_P1;SDS_P2;PMS_P1;PMS_P2;Temp;Humidity;BMP_temperature;BMP_pressure;BME280_temperature;BME280_humidity;BME280_pressure;Samples;Min_cycle;Max_cycle;Signal;HPM_P1;HPM_P2
2023/05/01 00:01:36;;;;;;;3.20;1.20;;;20.40;52.70;;;;;;5112668;28;20039;-71
2023/05/01 00:04:02;;;;;;;2.72;1.15;;;20.40;52.80;;;;;;5111113;28;20046;-72
2023/05/01 00:06:28;;;;;;;1.52;0.95;;;20.40;52.70;;;;;;5112347;28;20044;-72
2023/05/01 00:08:53;;;;;;;2.42;1.20;;;20.40;52.70;;;;;;5112580;28;20044;-71
2023/05/01 00:11:19;;;;;;;2.88;1.10;;;20.40;52.70;;;;;;5111713;28;20032;-71
2023/05/01 00:13:44;;;;;;;2.20;1.05;;;20.40;52.70;;;;;;5112105;28;20123;-72
2023/05/01 00:16:13;;;;;;;2.72;1.20;;;20.40;52.70;;;;;;5115373;28;20067;-71
2023/05/01 00:18:38;;;;;;;2.47;1.00;;;20.40;52.70;;;;;;5113966;28;20466;-71
2023/05/01 00:21:04;;;;;;;3.30;1.05;;;20.30;52.60;;;;;;5115929;28;20032;-71
2023/05/01 00:23:29;;;;;;;2.30;1.20;;;20.40;52.70;;;;;;5116178;28;20433;-71
2023/05/01 00:25:55;;;;;;;1.40;0.80;;;20.30;52.70;;;;;;5114985;28;20083;-71
2023/05/01 00:28:20;;;;;;;3.10;1.10;;;20.30;52.70;;;;;;5116196;28;20048;-72
2023/05/01 00:30:46;;;;;;;2.20;1.05;;;20.30;52.70;;;;;;5115571;28;20036;-71
2023/05/01 00:33:12;;;;;;;2.35;1.00;;;20.30;53.30;;;;;;5115485;28;20120;-71
2023/05/01 00:35:37;;;;;;;2.00;1.05;;;20.30;52.70;;;;;;5116040;28;20494;-71
2023/05/01 00:38:03;;;;;;;1.35;0.90;;;20.30;52.60;;;;;;5114774;28;20032;-71
2023/05/01 00:40:28;;;;;;;2.80;1.10;;;20.30;52.70;;;;;;5116041;28;20039;-71
2023/05/01 00:42:55;;;;;;;2.53;1.05;;;20.30;52.60;;;;;;5115422;28;20043;-71
2023/05/01 00:45:21;;;;;;;2.50;1.00;;;20.30;52.60;;;;;;5115251;28;20078;-71
2023/05/01 00:47:46;;;;;;;2.20;0.93;;;20.30;52.60;;;;;;5115586;28;20047;-71
2023/05/01 00:50:12;;;;;;;2.95;1.30;;;20.20;52.50;;;;;;5115150;28;20032;-71
2023/05/01 00:52:38;;;;;;;2.05;1.00;;;20.20;52.50;;;;;;5115172;28;20051;-71
2023/05/01 00:55:04;;;;;;;2.65;0.93;;;20.20;52.50;;;;;;5115011;28;20044;-71
2023/05/01 00:57:30;;;;;;;1.77;1.00;;;20.20;53.20;;;;;;5115434;28;20037;-72
2023/05/01 00:59:56;;;;;;;1.85;0.90;;;20.20;52.60;;;;;;5114442;28;20040;-71
2023/05/01 01:02:22;;;;;;;2.97;1.50;;;20.20;52.50;;;;;;5115561;28;20051;-72
2023/05/01 01:04:47;;;;;;;1.77;0.85;;;20.20;52.60;;;;;;5113941;28;20096;-72
2023/05/01 01:07:38;;;;;;;2.08;1.00;;;20.20;52.50;;;;;;5096116;28;20047;-71
2023/05/01 01:10:17;;;;;;;2.22;0.93;;;20.20;52.50;;;;;;5113919;28;20044;-71
2023/05/01 01:13:03;;;;;;;1.35;0.90;;;20.20;52.50;;;;;;5114306;28;20509;-71
2023/05/01 01:15:55;;;;;;;1.63;0.88;;;20.20;52.50;;;;;;5093820;28;20044;-71
2023/05/01 01:18:23;;;;;;;2.45;0.93;;;20.20;52.50;;;;;;5094106;28;20040;-71
2023/05/01 01:20:49;;;;;;;;;;;20.10;52.50;;;;;;5094643;28;20044;-71
2023/05/01 01:23:34;;;;;;;2.20;1.10;;;20.10;52.40;;;;;;5093368;28;19931;-71
2023/05/01 01:26:25;;;;;;;2.10;0.88;;;20.10;52.50;;;;;;5092824;28;20101;-71
2023/05/01 01:29:16;;;;;;;2.42;1.02;;;20.10;52.50;;;;;;5094068;28;20067;-71
2023/05/01 01:32:17;;;;;;;2.60;0.90;;;20.10;52.50;;;;;;5077229;28;20123;-71
2023/05/01 01:34:46;;;;;;;2.00;1.00;;;20.10;52.50;;;;;;5093849;28;20123;-71
2023/05/01 01:37:21;;;;;;;2.45;0.90;;;20.10;52.50;;;;;;5076550;28;20136;-71
2023/05/01 01:39:57;;;;;;;2.03;1.10;;;20.10;52.50;;;;;;5108013;28;20109;-71
2023/05/01 01:42:28;;;;;;;2.38;1.00;;;20.10;52.40;;;;;;5114203;27;20044;-71
2023/05/01 01:44:55;;;;;;;2.85;1.00;;;20.10;52.50;;;;;;5114506;28;20107;-71
2023/05/01 01:47:25;;;;;;;3.25;1.10;;;20.10;52.50;;;;;;5114625;28;20456;-71
2023/05/01 01:49:51;;;;;;;3.53;1.17;;;20.10;52.50;;;;;;5112572;28;20075;-71
2023/05/01 01:52:16;;;;;;;2.03;0.77;;;20.10;52.50;;;;;;5113106;28;20099;-71
2023/05/01 01:55:10;;;;;;;2.03;1.05;;;20.10;52.50;;;;;;5112923;28;20090;-71
2023/05/01 01:57:39;;;;;;;2.13;0.93;;;20.00;52.40;;;;;;5109330;28;20051;-71
2023/05/01 02:00:07;;;;;;;3.72;1.08;;;20.00;52.40;;;;;;5114365;28;20036;-71
2023/05/01 02:02:34;;;;;;;2.00;1.00;;;20.10;52.50;;;;;;5094935;28;20101;-71
2023/05/01 02:05:00;;;;;;;1.02;0.68;;;20.00;52.50;;;;;;5091899;28;20093;-71
2023/05/01 02:07:25;;;;;;;2.15;1.20;;;20.00;52.40;;;;;;5075837;28;20434;-71
2023/05/01 02:09:51;;;;;;;1.60;0.90;;;20.00;52.50;;;;;;5108614;28;20475;-71
2023/05/01 02:12:17;;;;;;;2.60;1.00;;;20.00;52.40;;;;;;5109366;28;20382;-71
2023/05/01 02:14:42;;;;;;;2.90;1.08;;;20.00;52.50;;;;;;5072401;28;20047;-71
2023/05/01 02:17:09;;;;;;;1.73;0.90;;;20.00;52.40;;;;;;5087706;28;20416;-71
2023/05/01 02:19:34;;;;;;;1.45;0.98;;;20.00;52.40;;;;;;5092442;28;20082;-71
2023/05/01 02:22:00;;;;;;;1.80;1.00;;;20.00;52.40;;;;;;5075498;28;20044;-71
2023/05/01 02:24:26;;;;;;;2.88;1.13;;;20.00;52.40;;;;;;5091476;28;20411;-71
2023/05/01 02:26:56;;;;;;;1.90;0.98;;;20.00;52.40;;;;;;5092336;28;20091;-71
2023/05/01 02:29:22;;;;;;;1.50;0.88;;;19.90;52.40;;;;;;5092626;28;20126;-71
2023/05/01 02:31:47;;;;;;;1.92;1.00;;;20.00;52.40;;;;;;5092874;28;20123;-71
2023/05/01 02:34:13;;;;;;;2.67;1.10;;;19.90;52.40;;;;;;5092965;28;20063;-71
2023/05/01 02:36:38;;;;;;;2.30;1.20;;;19.90;52.40;;;;;;5091847;28;20075;-71
2023/05/01 02:39:04;;;;;;;3.00;1.00;;;19.90;52.30;;;;;;5095928;28;20036;-71
2023/05/01 02:41:30;;;;;;;1.60;0.82;;;19.90;52.40;;;;;;5113675;28;20043;-71
2023/05/01 02:43:59;;;;;;;2.15;1.00;;;19.90;52.40;;;;;;5111911;28;20464;-70
2023/05/01 02:46:26;;;;;;;1.58;1.00;;;19.90;52.30;;;;;;5111848;28;20043;-71
2023/05/01 02:48:52;;;;;;;1.80;0.80;;;19.90;52.30;;;;;;5095195;28;20047;-71
2023/05/01 02:51:17;;;;;;;1.58;0.80;;;19.90;52.40;;;;;;5112658;28;20122;-71
2023/05/01 02:53:43;;;;;;;2.38;1.00;;;19.90;52.30;;;;;;5113362;28;20392;-71
2023/05/01 02:56:08;;;;;;;1.40;0.80;;;19.90;52.30;;;;;;5113328;28;20390;-71
2023/05/01 02:58:34;;;;;;;1.70;0.90;;;19.90;52.30;;;;;;5111321;28;20134;-71
2023/05/01 03:00:59;;;;;;;2.30;1.00;;;19.90;52.30;;;;;;5072256;28;20055;-71
2023/05/01 03:03:26;;;;;;;2.75;1.27;;;19.90;52.30;;;;;;5071135;28;20057;-71
2023/05/01 03:05:52;;;;;;;1.88;1.08;;;19.80;52.20;;;;;;5091053;28;20532;-71
2023/05/01 03:08:17;;;;;;;2.00;1.10;;;19.80;52.20;;;;;;5092716;28;20048;-70
2023/05/01 03:10:43;;;;;;;1.95;0.93;;;19.80;52.20;;;;;;5108868;28;20127;-71
2023/05/01 03:13:10;;;;;;;2.28;0.93;;;19.80;52.20;;;;;;5111928;28;20040;-71
2023/05/01 03:15:36;;;;;;;2.45;1.15;;;19.80;52.10;;;;;;5113009;28;20039;-71
2023/05/01 03:18:02;;;;;;;2.17;1.10;;;19.80;52.10;;;;;;5113021;28;20057;-71
2023/05/01 03:20:28;;;;;;;1.35;1.05;;;19.80;52.00;;;;;;5111931;28;20039;-71
2023/05/01 03:22:54;;;;;;;2.08;1.05;;;19.80;52.00;;;;;;5113334;28;20043;-71
2023/05/01 03:25:20;;;;;;;0.88;0.80;;;19.80;52.00;;;;;;5112677;28;20499;-71
2023/05/01 03:27:45;;;;;;;1.65;0.95;;;19.80;52.00;;;;;;5112355;28;20118;-71
2023/05/01 03:30:11;;;;;;;2.47;1.00;;;19.80;52.00;;;;;;5112688;28;20040;-71
2023/05/01 03:32:37;;;;;;;2.00;0.90;;;19.80;52.00;;;;;;5113024;28;20086;-71
2023/05/01 03:35:03;;;;;;;3.08;0.93;;;19.80;52.00;;;;;;5111488;28;20079;-71
2023/05/01 03:37:29;;;;;;;1.65;1.00;;;19.80;52.00;;;;;;5113083;28;20035;-71
2023/05/01 03:39:54;;;;;;;1.58;0.90;;;19.90;52.10;;;;;;5112606;28;20118;-71
2023/05/01 03:42:20;;;;;;;1.60;0.82;;;19.90;52.00;;;;;;5112335;28;20043;-70
2023/05/01 03:44:45;;;;;;;2.75;1.00;;;19.90;52.00;;;;;;5112478;28;20043;-71
2023/05/01 03:47:11;;;;;;;2.25;1.15;;;19.90;52.10;;;;;;5112628;28;20044;-71
2023/05/01 03:49:36;;;;;;;1.98;1.00;;;19.90;52.10;;;;;;5112897;28;20092;-71
2023/05/01 03:52:02;;;;;;;2.05;0.80;;;19.90;52.10;;;;;;5116566;28;20047;-70
2023/05/01 03:54:27;;;;;;;3.22;0.90;;;19.90;52.10;;;;;;5116583;28;20130;-71
2023/05/01 03:56:53;;;;;;;1.80;0.90;;;19.90;52.10;;;;;;5115893;28;20055;-71
2023/05/01 03:59:18;;;;;;;1.67;0.80;;;19.90;52.10;;;;;;5116444;28;20176;-71
2023/05/01 04:01:44;;;;;;;1.77;0.90;;;19.90;52.80;;;;;;5114758;28;20090;-71
2023/05/01 04:04:10;;;;;;;2.97;1.02;;;19.90;52.10;;;;;;5095139;28;20158;-71
2023/05/01 04:06:36;;;;;;;2.05;1.02;;;19.90;52.10;;;;;;5095700;28;20127;-70
2023/05/01 04:09:01;;;;;;;2.22;1.10;;;19.90;52.00;;;;;;5076849;28;20071;-70
2023/05/01 04:11:27;;;;;;;1.33;0.80;;;20.00;52.10;;;;;;5116145;28;20437;-70
2023/05/01 04:13:53;;;;;;;1.20;0.80;;;20.00;52.10;;;;;;5116782;28;20044;-70
2023/05/01 04:16:18;;;;;;;1.88;1.00;;;20.00;52.00;;;;;;5113812;28;20039;-71
2023/05/01 04:18:44;;;;;;;1.67;1.30;;;20.00;52.10;;;;;;5116443;28;20039;-71
2023/05/01 04:21:09;;;;;;;2.55;1.33;;;20.00;52.00;;;;;;5115870;28;20035;-70
2023/05/01 04:23:35;;;;;;;1.88;1.00;;;20.00;51.90;;;;;;5115532;28;20173;-71
2023/05/01 04:26:00;;;;;;;1.75;1.27;;;20.00;52.00;;;;;;5115327;28;20059;-71
2023/05/01 04:28:29;;;;;;;1.67;0.90;;;20.00;51.90;;;;;;5116289;28;20042;-71
2023/05/01 04:30:55;;;;;;;1.50;0.90;;;20.00;52.00;;;;;;5114796;28;20093;-70
2023/05/01 04:33:21;;;;;;;3.63;1.15;;;20.00;52.00;;;;;;5116074;28;20086;-71
2023/05/01 04:35:47;;;;;;;2.70;1.10;;;20.00;52.00;;;;;;5115969;28;20120;-71
2023/05/01 04:38:13;;;;;;;1.60;0.88;;;20.00;51.90;;;;;;5114132;28;20102;-71
2023/05/01 04:40:38;;;;;;;2.88;1.00;;;20.10;52.00;;;;;;5114450;28;20035;-71
2023/05/01 04:43:04;;;;;;;1.60;1.10;;;20.10;52.00;;;;;;5098722;28;20043;-70
2023/05/01 04:45:29;;;;;;;2.03;1.15;;;20.10;52.00;;;;;;5094678;28;20040;-71
2023/05/01 04:47:55;;;;;;;2.42;1.30;;;20.00;51.90;;;;;;5094140;28;20032;-71
2023/05/01 04:50:20;;;;;;;1.95;1.08;;;20.10;52.00;;;;;;5095294;28;20040;-71
2023/05/01 04:52:46;;;;;;;1.73;0.90;;;20.10;52.00;;;;;;5093397;28;20131;-71
2023/05/01 04:55:12;;;;;;;2.50;1.20;;;20.10;51.90;;;;;;5095166;28;20044;-71
2023/05/01 04:57:37;;;;;;;2.42;1.05;;;20.10;51.90;;;;;;5095412;28;20040;-71
2023/05/01 05:00:03;;;;;;;2.55;0.90;;;20.10;51.90;;;;;;5097800;28;20114;-71
2023/05/01 05:02:29;;;;;;;1.70;1.00;;;20.10;51.90;;;;;;5115356;28;20390;-71
2023/05/01 05:04:55;;;;;;;2.08;1.05;;;20.10;51.90;;;;;;5112832;28;20538;-71
2023/05/01 05:07:21;;;;;;;2.25;1.00;;;20.10;51.90;;;;;;5115612;28;20039;-71
2023/05/01 05:09:46;;;;;;;2.38;1.20;;;20.10;51.90;;;;;;5115048;28;20047;-71
2023/05/01 05:12:13;;;;;;;3.40;1.00;;;20.10;51.90;;;;;;5114668;28;20088;-72
2023/05/01 05:14:39;;;;;;;2.25;1.10;;;20.10;51.80;;;;;;5115247;28;20055;-72
2023/05/01 05:17:05;;;;;;;1.73;0.88;;;20.10;51.90;;;;;;5115072;28;20044;-70
2023/05/01 05:19:31;;;;;;;2.30;1.00;;;20.10;51.90;;;;;;5114322;28;20088;-70
2023/05/01 05:21:56;;;;;;;1.80;1.00;;;20.10;52.00;;;;;;5114778;28;20074;-71
2023/05/01 05:24:22;;;;;;;2.42;1.30;;;20.10;52.10;;;;;;5114933;28;20131;-71
2023/05/01 05:26:48;;;;;;;3.90;1.23;;;20.10;52.10;;;;;;5114357;27;20044;-70
2023/05/01 05:29:14;;;;;;;2.70;1.08;;;20.10;52.10;;;;;;5114874;28;20394;-71
2023/05/01 05:31:39;;;;;;;2.58;1.10;;;20.10;52.10;;;;;;5114970;28;20032;-70
2023/05/01 05:34:05;;;;;;;5.43;1.17;;;20.10;52.20;;;;;;5113542;28;20440;-70
2023/05/01 05:36:31;;;;;;;2.00;1.10;;;20.10;52.20;;;;;;5114925;28;20114;-71
2023/05/01 05:38:56;;;;;;;2.47;1.08;;;20.10;52.20;;;;;;5114535;28;20046;-71
2023/05/01 05:41:22;;;;;;;1.75;1.10;;;20.10;52.20;;;;;;5112503;28;20442;-71
2023/05/01 05:43:48;;;;;;;4.90;1.40;;;20.10;52.20;;;;;;5114712;28;20044;-71
2023/05/01 05:46:13;;;;;;;2.92;1.27;;;20.10;52.20;;;;;;5114311;28;20044;-71
2023/05/01 05:48:39;;;;;;;4.57;1.20;;;20.10;52.30;;;;;;5113713;28;20403;-76
2023/05/01 05:51:04;;;;;;;2.58;1.10;;;20.10;52.30;;;;;;5112595;28;20118;-77
2023/05/01 05:53:30;;;;;;;9.57;1.80;;;20.10;52.40;;;;;;5114324;28;20070;-70
2023/05/01 05:55:56;;;;;;;5.45;1.02;;;20.20;52.50;;;;;;5092510;28;20047;-75
2023/05/01 05:58:23;;;;;;;2.92;1.00;;;20.10;52.50;;;;;;5094127;28;20547;-68
2023/05/01 06:00:48;;;;;;;5.38;1.30;;;20.10;52.60;;;;;;5093943;28;20058;-72
2023/05/01 06:03:14;;;;;;;3.38;1.50;;;20.10;52.70;;;;;;5093054;28;20052;-72
2023/05/01 06:05:41;;;;;;;3.30;1.15;;;20.10;52.70;;;;;;5093677;28;20039;-72
2023/05/01 06:08:06;;;;;;;4.40;1.20;;;20.20;52.80;;;;;;5093613;28;20040;-72
2023/05/01 06:10:32;;;;;;;5.43;1.10;;;20.20;52.90;;;;;;5093371;28;20093;-71
2023/05/01 06:12:57;;;;;;;3.42;0.98;;;20.20;52.90;;;;;;5092586;28;20079;-71
2023/05/01 06:15:23;;;;;;;6.60;1.40;;;20.20;52.90;;;;;;5092829;28;20491;-71
2023/05/01 06:17:49;;;;;;;5.32;1.30;;;20.20;53.00;;;;;;5094024;28;20044;-77
2023/05/01 06:20:15;;;;;;;3.10;1.10;;;20.20;53.00;;;;;;5092161;28;20126;-70
2023/05/01 06:22:40;;;;;;;6.68;1.50;;;20.20;53.00;;;;;;5091985;28;20524;-68
2023/05/01 06:25:07;;;;;;;6.32;1.50;;;20.20;53.10;;;;;;5092811;28;20112;-70
2023/05/01 06:27:33;;;;;;;2.78;1.20;;;20.20;53.10;;;;;;5093777;28;20044;-70
2023/05/01 06:29:59;;;;;;;3.35;1.40;;;20.20;53.20;;;;;;5092493;28;20479;-71
2023/05/01 06:32:24;;;;;;;4.82;1.42;;;20.20;53.30;;;;;;5093105;28;20047;-70
2023/05/01 06:34:50;;;;;;;4.72;1.10;;;20.20;53.40;;;;;;5093302;28;20047;-71
2023/05/01 06:37:15;;;;;;;4.90;1.08;;;20.20;53.40;;;;;;5092333;28;20047;-70
2023/05/01 06:39:41;;;;;;;4.28;1.17;;;20.20;53.50;;;;;;5093436;28;20036;-70
2023/05/01 06:42:06;;;;;;;3.47;1.40;;;20.20;53.60;;;;;;5093325;28;20036;-70
2023/05/01 06:44:32;;;;;;;4.18;1.10;;;20.20;53.60;;;;;;5091640;28;20048;-71
2023/05/01 06:47:00;;;;;;;3.70;1.10;;;20.20;53.60;;;;;;5092742;28;20040;-71
2023/05/01 06:49:26;;;;;;;4.85;1.10;;;20.20;53.70;;;;;;5092489;28;20035;-71
2023/05/01 06:51:52;;;;;;;5.15;1.42;;;20.30;53.80;;;;;;5091755;28;20029;-71
2023/05/01 06:54:17;;;;;;;2.13;1.35;;;20.30;53.90;;;;;;5092449;28;20098;-72
2023/05/01 06:56:43;;;;;;;4.60;1.45;;;20.30;54.00;;;;;;5091269;28;20110;-72
2023/05/01 06:59:09;;;;;;;5.63;1.60;;;20.30;54.00;;;;;;5091386;28;20438;-71
2023/05/01 07:01:34;;;;;;;4.22;1.40;;;20.30;54.10;;;;;;5092935;28;20036;-72
2023/05/01 07:04:00;;;;;;;2.65;1.30;;;20.30;54.10;;;;;;5090828;28;20044;-72
2023/05/01 07:06:26;;;;;;;3.00;1.10;;;20.30;54.10;;;;;;5091905;28;20039;-72
2023/05/01 07:08:52;;;;;;;3.28;1.38;;;20.30;54.10;;;;;;5090990;28;20048;-71
2023/05/01 07:11:17;;;;;;;5.70;1.45;;;20.30;54.20;;;;;;5092544;28;20063;-70
2023/05/01 07:13:43;;;;;;;3.60;1.20;;;20.30;54.20;;;;;;5090731;28;20090;-71
2023/05/01 07:16:08;;;;;;;4.93;1.73;;;20.30;54.30;;;;;;5098096;28;20088;-72
2023/05/01 07:18:34;;;;;;;4.28;1.40;;;20.30;54.30;;;;;;5112281;28;20122;-71
2023/05/01 07:21:00;;;;;;;3.42;1.20;;;20.30;54.30;;;;;;5112528;28;20028;-71
2023/05/01 07:23:26;;;;;;;4.68;1.38;;;20.30;54.30;;;;;;5112651;28;20487;-70
2023/05/01 07:25:51;;;;;;;3.97;1.55;;;20.30;54.30;;;;;;5111788;28;20063;-73
2023/05/01 07:28:19;;;;;;;3.20;1.60;;;20.30;54.40;;;;;;5112689;28;20039;-71
2023/05/01 07:30:44;;;;;;;2.40;1.08;;;20.30;54.40;;;;;;5109698;28;20571;-70
2023/05/01 07:33:10;;;;;;;4.35;1.15;;;20.30;54.30;;;;;;5090700;28;20036;-72
2023/05/01 07:35:36;;;;;;;4.18;1.38;;;20.30;54.30;;;;;;5091838;28;20079;-72
2023/05/01 07:38:02;;;;;;;5.57;1.50;;;20.40;54.40;;;;;;5091673;28;20529;-70
2023/05/01 07:40:27;;;;;;;2.47;1.20;;;20.40;54.40;;;;;;5091295;28;20044;-70
2023/05/01 07:42:53;;;;;;;8.52;1.58;;;20.40;54.50;;;;;;5090482;28;20044;-71
2023/05/01 07:45:18;;;;;;;4.28;1.50;;;20.40;54.60;;;;;;5090275;28;20047;-70
2023/05/01 07:47:44;;;;;;;4.38;1.55;;;20.40;54.60;;;;;;5091111;28;20036;-72
2023/05/01 07:50:10;;;;;;;5.32;1.50;;;20.40;54.60;;;;;;5092035;28;20044;-71
2023/05/01 07:52:36;;;;;;;5.20;1.40;;;20.40;54.60;;;;;;5092532;28;20124;-71
2023/05/01 07:55:02;;;;;;;4.07;1.40;;;20.40;54.50;;;;;;5091369;28;20126;-72
2023/05/01 07:57:27;;;;;;;4.95;1.52;;;20.40;54.40;;;;;;5092402;28;20094;-72
2023/05/01 07:59:56;;;;;;;5.95;1.45;;;20.40;54.30;;;;;;5092384;28;20050;-71
2023/05/01 08:02:21;;;;;;;;;;;20.40;54.30;;;;;;5091355;28;20067;-71
2023/05/01 08:04:47;;;;;;;3.47;1.42;;;20.40;54.30;;;;;;5092119;28;20351;-72
2023/05/01 08:07:16;;;;;;;2.33;1.08;;;20.40;54.30;;;;;;5103715;28;20060;-70
2023/05/01 08:09:41;;;;;;;4.18;1.50;;;20.40;54.30;;;;;;5111795;28;20043;-71
2023/05/01 08:12:07;;;;;;;4.13;1.55;;;20.40;54.40;;;;;;5112216;28;20032;-74
2023/05/01 08:14:32;;;;;;;8.07;1.60;;;20.40;54.30;;;;;;5091852;28;20051;-61
2023/05/01 08:16:58;;;;;;;6.00;2.33;;;20.40;54.30;;;;;;5090888;28;20119;-60
2023/05/01 08:19:24;;;;;;;4.07;1.42;;;20.40;54.30;;;;;;5090414;28;20047;-60
2023/05/01 08:21:49;;;;;;;4.68;1.77;;;20.40;54.40;;;;;;5100855;28;20103;-65
2023/05/01 08:24:15;;;;;;;4.70;1.33;;;20.40;54.50;;;;;;5094267;28;20124;-66
2023/05/01 08:26:40;;;;;;;4.25;1.38;;;20.40;54.60;;;;;;5084046;28;20044;-66
2023/05/01 08:29:06;;;;;;;4.95;1.83;;;20.40;54.80;;;;;;5089252;28;20040;-66
2023/05/01 08:31:31;;;;;;;5.93;2.25;;;20.40;54.80;;;;;;5091949;28;20057;-69
2023/05/01 08:33:57;;;;;;;5.43;1.80;;;20.40;54.90;;;;;;5091200;28;20556;-69
2023/05/01 08:36:22;;;;;;;4.95;1.50;;;20.40;55.00;;;;;;5101368;28;20044;-69
2023/05/01 08:38:48;;;;;;;4.15;1.60;;;20.40;55.10;;;;;;5095176;28;20048;-68
2023/05/01 08:41:21;;;;;;;6.22;1.63;;;20.40;55.20;;;;;;5093335;28;20336;-66
2023/05/01 08:43:47;;;;;;;7.13;1.95;;;20.40;55.30;;;;;;5093622;28;20043;-67
2023/05/01 08:46:13;;;;;;;7.20;1.70;;;20.40;55.20;;;;;;5094152;28;20047;-67
2023/05/01 08:48:39;;;;;;;7.03;1.60;;;20.50;55.50;;;;;;5077332;28;20468;-68
2023/05/01 08:51:05;;;;;;;4.20;1.70;;;20.50;55.60;;;;;;5094101;28;20403;-68
2023/05/01 08:53:31;;;;;;;8.35;2.03;;;20.50;55.60;;;;;;5094183;28;20040;-68
2023/05/01 08:55:56;;;;;;;5.47;1.55;;;20.50;55.70;;;;;;5093001;28;20090;-67
2023/05/01 08:58:23;;;;;;;4.15;1.73;;;20.50;55.80;;;;;;5059368;28;20415;-67
2023/05/01 09:00:48;;;;;;;4.93;1.75;;;20.50;55.90;;;;;;5093645;28;20059;-66
2023/05/01 09:03:14;;;;;;;3.85;1.63;;;20.50;55.90;;;;;;5093680;28;20036;-66
2023/05/01 09:05:39;;;;;;;5.32;1.50;;;20.50;56.00;;;;;;5093713;28;20052;-68
2023/05/01 09:08:05;;;;;;;5.78;1.67;;;20.60;56.10;;;;;;5094969;28;20090;-68
2023/05/01 09:10:31;;;;;;;6.22;1.70;;;20.60;56.10;;;;;;5094957;28;20063;-66
2023/05/01 09:13:01;;;;;;;7.20;1.77;;;20.60;56.10;;;;;;5108599;28;20051;-67
2023/05/01 09:15:27;;;;;;;5.07;1.60;;;20.60;56.20;;;;;;5096954;28;20040;-67
2023/05/01 09:17:53;;;;;;;5.10;1.60;;;20.60;56.10;;;;;;5110217;28;20040;-69
2023/05/01 09:20:19;;;;;;;5.68;1.58;;;20.60;56.20;;;;;;5092241;28;20071;-70
2023/05/01 09:22:44;;;;;;;4.53;1.58;;;20.60;56.20;;;;;;5092330;28;20075;-70
2023/05/01 09:25:10;;;;;;;5.25;1.55;;;20.60;56.20;;;;;;5093556;28;20056;-70
2023/05/01 09:27:36;;;;;;;5.20;1.58;;;20.60;56.20;;;;;;5094921;28;20033;-70
2023/05/01 09:30:02;;;;;;;5.45;1.92;;;20.60;56.20;;;;;;5090894;28;20043;-70
2023/05/01 09:32:27;;;;;;;6.70;2.00;;;20.60;56.20;;;;;;5094079;28;20040;-65
2023/05/01 09:34:54;;;;;;;3.08;1.58;;;20.60;56.20;;;;;;5093741;28;20040;-70
2023/05/01 09:37:27;;;;;;;6.72;1.60;;;20.60;56.10;;;;;;5094484;28;20157;-69
2023/05/01 09:40:08;;;;;;;3.88;1.63;;;20.60;56.00;;;;;;5093317;28;20129;-69
2023/05/01 09:42:58;;;;;;;6.85;1.38;;;20.70;56.00;;;;;;5093686;28;20051;-68
2023/05/01 09:45:25;;;;;;;5.00;1.35;;;20.70;56.00;;;;;;5099574;28;20079;-69
2023/05/01 09:47:51;;;;;;;8.23;1.33;;;20.60;55.90;;;;;;5095290;28;20088;-69
2023/05/01 09:50:33;;;;;;;4.57;1.85;;;20.70;55.90;;;;;;5114029;28;20031;-68
2023/05/01 09:53:03;;;;;;;4.97;1.70;;;20.70;56.00;;;;;;5113362;28;20043;-68
2023/05/01 09:55:29;;;;;;;4.97;1.75;;;20.70;55.90;;;;;;5113454;28;20035;-68
2023/05/01 09:57:55;;;;;;;4.70;1.80;;;20.70;55.90;;;;;;5113829;28;20514;-69
2023/05/01 10:00:20;;;;;;;5.45;1.50;;;20.70;55.80;;;;;;5112916;28;20042;-68
2023/05/01 10:02:47;;;;;;;7.18;2.00;;;20.70;55.80;;;;;;5113169;28;20391;-68
2023/05/01 10:05:13;;;;;;;6.47;2.20;;;20.70;55.90;;;;;;5094833;28;20366;-69
2023/05/01 10:07:39;;;;;;;4.03;2.10;;;20.80;56.10;;;;;;5092767;28;20816;-62
2023/05/01 10:10:17;;;;;;;7.80;3.28;;;20.80;56.20;;;;;;5093329;28;20062;-66
2023/05/01 10:12:43;;;;;;;10.73;2.80;;;20.80;56.30;;;;;;5091069;28;20043;-69
2023/05/01 10:15:09;;;;;;;10.65;3.22;;;20.80;56.40;;;;;;5092382;28;20047;-69
2023/05/01 10:17:35;;;;;;;8.98;3.28;;;20.80;56.40;;;;;;5093074;28;20071;-69
2023/05/01 10:20:00;;;;;;;9.52;3.70;;;20.80;56.20;;;;;;5098917;28;20464;-70
2023/05/01 10:22:26;;;;;;;8.98;3.38;;;20.80;56.00;;;;;;5092936;28;20174;-65
2023/05/01 10:24:52;;;;;;;9.13;3.50;;;20.80;55.90;;;;;;5092099;28;20112;-70
2023/05/01 10:27:17;;;;;;;10.10;3.30;;;20.80;55.80;;;;;;5091842;28;20075;-70
2023/05/01 10:29:43;;;;;;;10.90;3.42;;;20.80;55.80;;;;;;5092944;28;20098;-70
2023/05/01 10:32:09;;;;;;;8.48;3.40;;;20.90;55.80;;;;;;5111998;28;20048;-70
2023/05/01 10:34:39;;;;;;;10.38;3.22;;;20.80;55.70;;;;;;5079335;28;20043;-70
2023/05/01 10:37:12;;;;;;;8.27;3.40;;;20.90;55.70;;;;;;5091149;28;20044;-70
2023/05/01 10:39:38;;;;;;;17.08;4.30;;;20.90;55.70;;;;;;5092012;28;20059;-70
2023/05/01 10:42:07;;;;;;;6.97;3.10;;;20.90;55.80;;;;;;5093105;28;20044;-70
2023/05/01 10:44:36;;;;;;;7.28;2.92;;;20.90;55.80;;;;;;5092616;28;20063;-70
2023/05/01 10:47:23;;;;;;;6.10;2.90;;;20.90;55.80;;;;;;5109610;28;20040;-67
2023/05/01 10:50:08;;;;;;;7.50;3.15;;;20.90;55.80;;;;;;5111421;28;20071;-64
2023/05/01 10:53:11;;;;;;;6.55;3.03;;;20.90;55.60;;;;;;5113521;27;20123;-68
2023/05/01 10:55:37;;;;;;;11.07;2.72;;;20.90;55.50;;;;;;5113163;28;20051;-68
2023/05/01 10:58:03;;;;;;;6.85;3.22;;;20.90;55.40;;;;;;5091020;28;20127;-67
2023/05/01 11:00:29;;;;;;;7.78;2.83;;;20.90;55.40;;;;;;5074696;28;20116;-74
2023/05/01 11:03:34;;;;;;;7.55;2.85;;;20.90;55.30;;;;;;5092745;28;20036;-67
2023/05/01 11:06:01;;;;;;;7.13;2.97;;;21.00;55.20;;;;;;5091377;28;20412;-67
2023/05/01 11:08:37;;;;;;;8.30;2.83;;;21.00;55.20;;;;;;5092850;28;20093;-67
2023/05/01 11:11:21;;;;;;;8.30;3.30;;;21.00;55.20;;;;;;5091657;28;20449;-67
2023/05/01 11:13:59;;;;;;;9.15;3.08;;;21.00;55.20;;;;;;5092788;28;20039;-66
2023/05/01 11:16:36;;;;;;;5.88;2.75;;;21.00;55.30;;;;;;5092786;28;20192;-66
2023/05/01 11:19:02;;;;;;;4.68;2.22;;;21.00;55.30;;;;;;5090903;28;20640;-66
2023/05/01 11:21:29;;;;;;;5.68;2.40;;;21.00;55.20;;;;;;5092505;28;20047;-67
2023/05/01 11:23:54;;;;;;;7.32;3.05;;;21.00;55.30;;;;;;5092415;28;20048;-67
2023/05/01 11:26:21;;;;;;;7.72;2.72;;;21.10;55.30;;;;;;5100651;28;20054;-67
2023/05/01 11:28:47;;;;;;;5.60;2.42;;;21.00;55.20;;;;;;5078231;28;20051;-66
2023/05/01 11:31:19;;;;;;;9.52;2.92;;;21.10;55.30;;;;;;5111321;28;20403;-67
2023/05/01 11:33:47;;;;;;;4.47;2.83;;;21.10;55.40;;;;;;5110980;28;20040;-67
2023/05/01 11:36:13;;;;;;;9.35;2.50;;;21.10;55.30;;;;;;5112219;28;20051;-66
2023/05/01 11:38:50;;;;;;;6.00;2.80;;;21.10;55.30;;;;;;5112998;28;20390;-67
2023/05/01 11:41:22;;;;;;;7.38;2.40;;;21.10;55.30;;;;;;5105675;28;20381;-66
2023/05/01 11:43:52;;;;;;;6.22;2.42;;;21.10;55.30;;;;;;5090800;28;20550;-67
2023/05/01 11:46:26;;;;;;;6.38;2.92;;;21.10;56.00;;;;;;5089684;28;20043;-67
2023/05/01 11:48:55;;;;;;;8.30;2.85;;;21.10;55.30;;;;;;5092323;28;20040;-67
2023/05/01 11:51:21;;;;;;;8.60;2.50;;;21.10;55.90;;;;;;5091000;28;20446;-67
2023/05/01 11:54:07;;;;;;;8.75;2.80;;;21.10;55.20;;;;;;5091701;28;20036;-67
2023/05/01 11:56:33;;;;;;;6.40;2.33;;;21.20;55.30;;;;;;5092620;28;20048;-68
2023/05/01 11:59:07;;;;;;;7.82;2.75;;;21.20;55.20;;;;;;5092220;28;20036;-67
2023/05/01 12:01:37;;;;;;;6.63;2.53;;;21.20;55.30;;;;;;5091679;28;20604;-67
2023/05/01 12:04:03;;;;;;;4.47;2.17;;;21.20;55.30;;;;;;5091419;28;20040;-66
2023/05/01 12:06:43;;;;;;;6.78;2.38;;;21.20;55.30;;;;;;5073821;28;20503;-66
2023/05/01 12:09:16;;;;;;;4.55;2.00;;;21.20;55.20;;;;;;5091191;28;20032;-68
2023/05/01 12:11:41;;;;;;;3.90;1.80;;;21.20;55.10;;;;;;5095135;28;20040;-66
2023/05/01 12:14:07;;;;;;;3.97;1.88;;;21.20;55.00;;;;;;5094836;28;20414;-66
2023/05/01 12:16:33;;;;;;;6.55;2.22;;;21.20;55.00;;;;;;5078101;28;20051;-66
2023/05/01 12:18:59;;;;;;;4.10;1.80;;;21.20;55.10;;;;;;5095970;28;20055;-66
2023/05/01 12:21:25;;;;;;;7.88;2.08;;;21.20;55.10;;;;;;5095179;28;20032;-66
2023/05/01 12:23:51;;;;;;;6.13;1.90;;;21.20;55.10;;;;;;5096029;28;20055;-66
2023/05/01 12:26:24;;;;;;;6.93;2.15;;;21.20;55.00;;;;;;5100121;28;20043;-66
2023/05/01 12:29:02;;;;;;;6.90;2.20;;;21.20;55.00;;;;;;5115607;28;20135;-66
2023/05/01 12:31:27;;;;;;;;;;;21.20;55.00;;;;;;5096468;28;20040;-66
2023/05/01 12:33:57;;;;;;;4.45;2.13;;;21.20;55.10;;;;;;5095831;28;20003;-66
2023/05/01 12:36:26;;;;;;;6.30;2.00;;;21.20;55.10;;;;;;5095093;28;20046;-66
2023/05/01 12:38:59;;;;;;;;;;;21.20;55.10;;;;;;5095489;28;20066;-66
2023/05/01 12:41:41;;;;;;;4.65;1.73;;;21.20;55.10;;;;;;5094616;28;19920;-66
2023/05/01 12:44:26;;;;;;;5.20;1.88;;;21.20;55.20;;;;;;5094759;28;20055;-66
2023/05/01 12:47:12;;;;;;;5.82;1.95;;;21.10;55.00;;;;;;5095639;28;20032;-66
2023/05/01 12:49:37;;;;;;;5.55;2.13;;;21.20;55.10;;;;;;5094074;28;20095;-66
2023/05/01 12:52:05;;;;;;;3.97;1.90;;;21.20;55.20;;;;;;5095433;28;20514;-66